Time;durP1;ratioP1;P1;durP2;ratioP2;P2;SDS_P1;SDS_P2;PMS_P1;PMS_P2;Temp;Humidity;BMP_temperature;BMP_pressure;BME280_temperature;BME280_humidity;BME280_pressure;Samples;Min_cycle;Max_cycle;Signal;HPM_P1;HPM_P2
2021/11/10 00:00:14;;;;;;;17.85;10.20;;;;;;;;;;5072386;28;20212;-66
2021/11/10 00:02:42;;;;;;;13.75;9.73;;;;;;;;;;5072413;28;20280;-66
2021/11/10 00:05:11;;;;;;;15.30;9.60;;;;;;;;;;5072306;28;20274;-66
2021/11/10 00:07:39;;;;;;;14.10;9.88;;;;;;;;;;5072805;28;20201;-66
2021/11/10 00:10:07;;;;;;;14.95;9.68;;;;;;;;;;5071385;28;20221;-66
2021/11/10 00:12:36;;;;;;;13.30;9.13;;;;;;;;;;5073073;28;20198;-66
2021/11/10 00:15:05;;;;;;;13.73;9.57;;;;;;;;;;5073143;28;20493;-65
2021/11/10 00:17:33;;;;;;;19.60;12.70;;;;;;;;;;5074050;28;20232;-66
2021/11/10 00:20:00;;;;;;;14.50;11.25;;;;;;;;;;5072869;28;20295;-66
2021/11/10 00:22:29;;;;;;;15.25;9.60;;;;;;;;;;5074074;28;20259;-66
2021/11/10 00:24:56;;;;;;;13.60;9.38;;;;;;;;;;5073331;28;20226;-65
2021/11/10 00:27:23;;;;;;;14.85;9.02;;;;;;;;;;5073891;28;20194;-66
2021/11/10 00:29:51;;;;;;;10.98;8.43;;;;;;;;;;5072334;28;20189;-69
2021/11/10 00:32:18;;;;;;;13.02;8.55;;;;;;;;;;5073370;28;20189;-66
2021/11/10 00:34:45;;;;;;;9.82;7.88;;;;;;;;;;5072921;28;20205;-64
2021/11/10 00:37:19;;;;;;;12.23;7.95;;;;;;;;;;5073758;28;20198;-66
2021/11/10 00:39:48;;;;;;;11.90;8.55;;;;;;;;;;5073085;28;20527;-66
2021/11/10 00:42:15;;;;;;;16.77;8.60;;;;;;;;;;5073645;28;20251;-68
2021/11/10 00:44:43;;;;;;;11.30;9.07;;;;;;;;;;5072814;28;20194;-66
2021/11/10 00:47:13;;;;;;;12.35;8.20;;;;;;;;;;5073073;28;20236;-66
2021/11/10 00:49:41;;;;;;;16.75;8.73;;;;;;;;;;5070905;28;20265;-65
2021/11/10 00:52:09;;;;;;;11.63;8.10;;;;;;;;;;5073141;28;20273;-65
2021/11/10 00:54:42;;;;;;;10.88;9.43;;;;;;;;;;5072405;28;20237;-66
2021/11/10 00:57:16;;;;;;;13.00;8.65;;;;;;;;;;5073077;28;20198;-66
2021/11/10 00:59:43;;;;;;;18.98;10.65;;;;;;;;;;5072522;28;20186;-66
2021/11/10 01:02:15;;;;;;;12.05;8.15;;;;;;;;;;5072443;28;20304;-65
2021/11/10 01:04:43;;;;;;;16.67;9.48;;;;;;;;;;5072401;28;20187;-65
2021/11/10 01:07:10;;;;;;;25.30;10.45;;;;;;;;;;5073028;28;20628;-66
2021/11/10 01:09:41;;;;;;;18.70;11.90;;;;;;;;;;5072470;28;20186;-66
2021/11/10 01:12:09;;;;;;;16.27;9.95;;;;;;;;;;5072655;28;20194;-65
2021/11/10 01:14:39;;;;;;;14.40;8.80;;;;;;;;;;5071144;28;20197;-66
2021/11/10 01:17:08;;;;;;;11.27;8.32;;;;;;;;;;5072638;28;20592;-65
2021/11/10 01:19:36;;;;;;;11.10;7.50;;;;;;;;;;5072599;28;20267;-66
2021/11/10 01:22:04;;;;;;;9.68;7.20;;;;;;;;;;5071941;28;20597;-66
2021/11/10 01:24:32;;;;;;;11.95;8.60;;;;;;;;;;5072685;28;20193;-66
2021/11/10 01:27:00;;;;;;;11.95;8.38;;;;;;;;;;5072259;28;20527;-66
2021/11/10 01:29:27;;;;;;;15.68;8.32;;;;;;;;;;5072623;28;20225;-65
2021/11/10 01:31:56;;;;;;;9.50;8.05;;;;;;;;;;5071961;28;20186;-66
2021/11/10 01:34:24;;;;;;;16.30;8.85;;;;;;;;;;5072518;28;20609;-65
2021/11/10 01:36:51;;;;;;;14.60;7.38;;;;;;;;;;5072016;28;20240;-66
2021/11/10 01:39:19;;;;;;;10.75;7.43;;;;;;;;;;5072478;28;20197;-66
2021/11/10 01:41:47;;;;;;;9.25;7.38;;;;;;;;;;5071483;28;20306;-66
2021/11/10 01:44:18;;;;;;;14.38;8.80;;;;;;;;;;5072154;28;20204;-65
2021/11/10 01:46:50;;;;;;;13.40;9.02;;;;;;;;;;5071833;28;20565;-66
2021/11/10 01:49:28;;;;;;;11.48;8.80;;;;;;;;;;5072062;28;20293;-65
2021/11/10 01:52:00;;;;;;;11.57;7.75;;;;;;;;;;5071656;28;20268;-65
2021/11/10 01:54:28;;;;;;;14.40;8.23;;;;;;;;;;5072433;28;20198;-66
2021/11/10 01:57:00;;;;;;;14.80;8.68;;;;;;;;;;5071947;28;20194;-66
2021/11/10 01:59:33;;;;;;;15.98;8.25;;;;;;;;;;5072165;28;20547;-66
2021/11/10 02:02:01;;;;;;;10.50;7.47;;;;;;;;;;5071471;28;20224;-66
2021/11/10 02:04:31;;;;;;;16.67;8.48;;;;;;;;;;5071558;28;20221;-66
2021/11/10 02:06:59;;;;;;;10.82;7.40;;;;;;;;;;5071479;28;20190;-66
2021/11/10 02:09:27;;;;;;;9.82;7.40;;;;;;;;;;5071595;28;20178;-66
2021/11/10 02:12:01;;;;;;;9.63;7.10;;;;;;;;;;5072086;28;20252;-65
2021/11/10 02:14:30;;;;;;;11.77;8.15;;;;;;;;;;5071852;28;20186;-66
2021/11/10 02:16:58;;;;;;;11.43;8.82;;;;;;;;;;5071679;28;20680;-65
2021/11/10 02:19:26;;;;;;;12.02;7.45;;;;;;;;;;5071387;28;20186;-65
2021/11/10 02:21:57;;;;;;;13.45;8.68;;;;;;;;;;5071993;28;20217;-65
2021/11/10 02:24:25;;;;;;;12.00;7.50;;;;;;;;;;5071361;28;20285;-66
2021/11/10 02:26:53;;;;;;;13.73;8.95;;;;;;;;;;5075354;28;20189;-66
2021/11/10 02:29:24;;;;;;;11.05;7.93;;;;;;;;;;5075281;28;20186;-66
2021/11/10 02:31:57;;;;;;;15.80;7.22;;;;;;;;;;5075583;28;20197;-65
2021/11/10 02:34:30;;;;;;;8.02;6.43;;;;;;;;;;5075403;28;20629;-65
2021/11/10 02:36:59;;;;;;;13.60;8.30;;;;;;;;;;5075449;28;20543;-65
2021/11/10 02:39:30;;;;;;;10.38;7.10;;;;;;;;;;5075536;28;20190;-65
2021/11/10 02:41:58;;;;;;;10.52;7.07;;;;;;;;;;5075519;28;20244;-65
2021/11/10 02:44:28;;;;;;;12.15;7.00;;;;;;;;;;5074383;28;20193;-65
2021/11/10 02:46:56;;;;;;;12.40;8.05;;;;;;;;;;5075472;28;20301;-66
2021/11/10 02:49:25;;;;;;;11.52;6.80;;;;;;;;;;5074860;28;20217;-65
2021/11/10 02:52:00;;;;;;;11.00;6.93;;;;;;;;;;5075411;28;20248;-65
2021/11/10 02:54:30;;;;;;;9.80;6.90;;;;;;;;;;5075121;28;20185;-65
2021/11/10 02:57:07;;;;;;;8.00;6.10;;;;;;;;;;5075131;28;20244;-66
2021/11/10 02:59:37;;;;;;;12.13;8.20;;;;;;;;;;5074932;28;20190;-66
2021/11/10 03:02:05;;;;;;;11.90;8.30;;;;;;;;;;5075084;28;20280;-66
2021/11/10 03:04:37;;;;;;;10.80;6.88;;;;;;;;;;5074623;28;20226;-66
2021/11/10 03:07:08;;;;;;;10.55;7.28;;;;;;;;;;5075182;28;20260;-66
2021/11/10 03:09:38;;;;;;;9.68;7.43;;;;;;;;;;5075046;28;20194;-65
2021/11/10 03:12:06;;;;;;;11.45;7.35;;;;;;;;;;5074725;28;20190;-66
2021/11/10 03:14:37;;;;;;;14.40;7.13;;;;;;;;;;5075186;28;20244;-65
2021/11/10 03:17:06;;;;;;;9.70;6.60;;;;;;;;;;5074074;28;20190;-65
2021/11/10 03:19:37;;;;;;;9.60;6.88;;;;;;;;;;5074825;28;20198;-66
2021/11/10 03:22:06;;;;;;;15.13;7.28;;;;;;;;;;5074137;28;20221;-66
2021/11/10 03:24:34;;;;;;;8.60;7.05;;;;;;;;;;5074903;28;20587;-66
2021/11/10 03:27:04;;;;;;;11.00;7.10;;;;;;;;;;5074356;28;20198;-66
2021/11/10 03:29:32;;;;;;;10.20;6.60;;;;;;;;;;5074771;28;20190;-65
2021/11/10 03:32:00;;;;;;;10.32;7.03;;;;;;;;;;5074209;28;20224;-66
2021/11/10 03:34:28;;;;;;;13.45;8.93;;;;;;;;;;5074615;28;20244;-65
2021/11/10 03:36:56;;;;;;;11.93;8.48;;;;;;;;;;5073183;28;20208;-66
2021/11/10 03:39:28;;;;;;;10.23;7.30;;;;;;;;;;5074545;28;20270;-66
2021/11/10 03:41:56;;;;;;;12.60;8.07;;;;;;;;;;5074059;28;20218;-66
2021/11/10 03:44:25;;;;;;;10.93;7.50;;;;;;;;;;5074642;28;20190;-65
2021/11/10 03:47:02;;;;;;;11.45;6.55;;;;;;;;;;5073806;28;20285;-66
2021/11/10 03:49:31;;;;;;;11.07;7.22;;;;;;;;;;5073922;28;20310;-65
2021/11/10 03:51:58;;;;;;;7.70;6.13;;;;;;;;;;5073976;28;20284;-65
2021/11/10 03:54:31;;;;;;;6.78;5.95;;;;;;;;;;5073945;28;20522;-66
2021/11/10 03:56:59;;;;;;;10.00;6.65;;;;;;;;;;5074407;28;20232;-65
2021/11/10 03:59:28;;;;;;;10.20;8.05;;;;;;;;;;5073776;28;20718;-66
2021/11/10 04:01:56;;;;;;;7.93;6.20;;;;;;;;;;5074099;28;20225;-66
2021/11/10 04:04:26;;;;;;;10.35;7.35;;;;;;;;;;5073801;28;20215;-65
2021/11/10 04:06:53;;;;;;;11.85;7.18;;;;;;;;;;5074344;28;20189;-65
2021/11/10 04:09:26;;;;;;;9.02;7.05;;;;;;;;;;5073603;28;20208;-66
2021/11/10 04:11:53;;;;;;;8.45;7.18;;;;;;;;;;5054071;28;20205;-66
2021/11/10 04:14:22;;;;;;;7.97;6.65;;;;;;;;;;5054178;28;20256;-65
2021/11/10 04:16:51;;;;;;;12.65;7.75;;;;;;;;;;5073639;28;20183;-65
2021/11/10 04:19:19;;;;;;;9.20;7.10;;;;;;;;;;5074036;28;20957;-65
2021/11/10 04:21:46;;;;;;;11.77;7.70;;;;;;;;;;5073584;28;20252;-65
2021/11/10 04:24:14;;;;;;;8.90;7.00;;;;;;;;;;5073928;28;20194;-66
2021/11/10 04:26:42;;;;;;;12.52;7.70;;;;;;;;;;5073380;28;20644;-66
2021/11/10 04:29:12;;;;;;;10.55;6.68;;;;;;;;;;5073583;28;20281;-65
2021/11/10 04:31:39;;;;;;;13.55;7.80;;;;;;;;;;5073041;28;20183;-66
2021/11/10 04:34:08;;;;;;;12.15;7.43;;;;;;;;;;5073856;28;20201;-65
2021/11/10 04:36:39;;;;;;;9.70;7.28;;;;;;;;;;5072607;28;20213;-65
2021/11/10 04:39:07;;;;;;;10.80;7.55;;;;;;;;;;5073584;28;20194;-66
2021/11/10 04:41:34;;;;;;;11.63;7.70;;;;;;;;;;5072903;28;20545;-66
2021/11/10 04:44:03;;;;;;;12.52;7.72;;;;;;;;;;5073523;28;20193;-65
2021/11/10 04:46:31;;;;;;;12.27;7.60;;;;;;;;;;5073014;28;20190;-66
2021/11/10 04:49:01;;;;;;;11.23;7.35;;;;;;;;;;5073385;28;20194;-66
2021/11/10 04:51:31;;;;;;;10.43;6.85;;;;;;;;;;5072683;28;20222;-66
2021/11/10 04:54:07;;;;;;;12.07;7.07;;;;;;;;;;5073525;28;20186;-66
2021/11/10 04:56:36;;;;;;;11.32;7.65;;;;;;;;;;5072861;28;20247;-66
2021/11/10 04:59:04;;;;;;;11.32;7.93;;;;;;;;;;5072937;28;20222;-66
2021/11/10 05:01:38;;;;;;;13.18;7.75;;;;;;;;;;5072805;28;20283;-66
2021/11/10 05:04:06;;;;;;;11.13;6.75;;;;;;;;;;5073310;28;20542;-65
2021/11/10 05:06:35;;;;;;;10.82;6.75;;;;;;;;;;5072572;28;20594;-65
2021/11/10 05:09:06;;;;;;;9.77;6.75;;;;;;;;;;5073233;28;20648;-65
2021/11/10 05:11:33;;;;;;;8.15;6.55;;;;;;;;;;5070477;28;20197;-65
2021/11/10 05:14:04;;;;;;;11.63;6.18;;;;;;;;;;5073073;28;20194;-65
2021/11/10 05:16:34;;;;;;;9.75;7.13;;;;;;;;;;5068796;28;20232;-67
2021/11/10 05:19:03;;;;;;;7.88;6.13;;;;;;;;;;5072529;28;20187;-67
2021/11/10 05:21:31;;;;;;;10.88;6.70;;;;;;;;;;5072601;28;20186;-66
2021/11/10 05:24:00;;;;;;;13.82;8.13;;;;;;;;;;5072345;28;20275;-69
2021/11/10 05:26:27;;;;;;;11.20;7.57;;;;;;;;;;5073050;28;20194;-66
2021/11/10 05:28:55;;;;;;;12.85;8.88;;;;;;;;;;5072552;28;20609;-65
2021/11/10 05:31:23;;;;;;;12.95;8.07;;;;;;;;;;5072959;28;20222;-65
2021/11/10 05:33:51;;;;;;;11.02;7.85;;;;;;;;;;5072387;28;20190;-65
2021/11/10 05:36:18;;;;;;;8.27;6.78;;;;;;;;;;5072991;28;20190;-65
2021/11/10 05:38:46;;;;;;;11.95;7.47;;;;;;;;;;5072329;28;20194;-66
2021/11/10 05:41:14;;;;;;;12.63;7.72;;;;;;;;;;5072801;28;20226;-66
2021/11/10 05:43:42;;;;;;;11.40;8.57;;;;;;;;;;5071701;28;20214;-66
2021/11/10 05:46:09;;;;;;;15.32;9.90;;;;;;;;;;5072732;28;20226;-66
2021/11/10 05:48:37;;;;;;;15.80;9.75;;;;;;;;;;5071868;28;20182;-65
2021/11/10 05:51:05;;;;;;;12.40;8.70;;;;;;;;;;5072203;28;20329;-66
2021/11/10 05:53:34;;;;;;;10.65;7.70;;;;;;;;;;5071618;28;20194;-66
2021/11/10 05:56:03;;;;;;;10.30;7.30;;;;;;;;;;5071176;28;20190;-66
2021/11/10 05:58:34;;;;;;;14.25;9.45;;;;;;;;;;5071656;28;20182;-66
2021/11/10 06:01:02;;;;;;;11.20;7.78;;;;;;;;;;5071678;28;20675;-66
2021/11/10 06:03:33;;;;;;;10.50;7.15;;;;;;;;;;5071586;28;20305;-68
2021/11/10 06:06:00;;;;;;;8.70;6.80;;;;;;;;;;5072191;28;20717;-66
2021/11/10 06:08:28;;;;;;;15.23;7.97;;;;;;;;;;5071492;28;20209;-66
2021/11/10 06:10:55;;;;;;;10.80;6.38;;;;;;;;;;5070910;28;20247;-66
2021/11/10 06:13:24;;;;;;;10.55;7.55;;;;;;;;;;5071915;28;20201;-66
2021/11/10 06:15:52;;;;;;;9.13;7.10;;;;;;;;;;5071410;28;20702;-65
2021/11/10 06:18:20;;;;;;;29.92;16.02;;;;;;;;;;5072160;28;20205;-65
2021/11/10 06:20:47;;;;;;;50.10;25.52;;;;;;;;;;5070989;28;20229;-66
2021/11/10 06:23:20;;;;;;;138.77;63.75;;;;;;;;;;5068698;28;20221;-66
2021/11/10 06:25:48;;;;;;;121.75;62.28;;;;;;;;;;5070051;28;20202;-66
2021/11/10 06:28:15;;;;;;;64.70;32.38;;;;;;;;;;5070487;28;20194;-66
2021/11/10 06:30:43;;;;;;;97.20;51.88;;;;;;;;;;5069582;28;20224;-66
2021/11/10 06:33:12;;;;;;;41.08;22.13;;;;;;;;;;5070419;28;20241;-66
2021/11/10 06:35:41;;;;;;;23.70;14.40;;;;;;;;;;5069493;28;20239;-66
2021/11/10 06:38:08;;;;;;;32.45;18.75;;;;;;;;;;5070348;28;20198;-67
2021/11/10 06:40:35;;;;;;;31.75;21.65;;;2.90;70.50;;;;;;5065397;28;20278;-66
2021/11/10 06:43:02;;;;;;;23.95;15.70;;;;;;;;;;5070373;28;20308;-67
2021/11/10 06:45:30;;;;;;;26.00;17.63;;;;;;;;;;5069974;28;20218;-66
2021/11/10 06:47:57;;;;;;;28.00;16.65;;;;;;;;;;5070060;28;20286;-66
2021/11/10 06:50:26;;;;;;;21.25;12.80;;;;;;;;;;5069409;28;20264;-67
2021/11/10 06:53:14;;;;;;;18.52;11.63;;;;;;;;;;5066778;28;20187;-66
2021/11/10 06:55:42;;;;;;;18.20;10.05;;;;;;;;;;5069556;28;20197;-66
2021/11/10 06:58:14;;;;;;;10.20;7.50;;;;;;;;;;5069180;28;20197;-67
2021/11/10 07:00:41;;;;;;;9.63;7.00;;;;;;;;;;5069855;28;20559;-66
2021/11/10 07:03:09;;;;;;;9.70;6.90;;;;;;;;;;5069318;28;20240;-66
2021/11/10 07:05:44;;;;;;;9.85;7.10;;;;;;;;;;5069183;28;20236;-67
2021/11/10 07:08:14;;;;;;;14.13;9.60;;;;;;;;;;5069385;28;20276;-66
2021/11/10 07:10:48;;;;;;;18.27;8.60;;;;;;;;;;5069560;28;20265;-66
2021/11/10 07:13:15;;;;;;;14.63;8.38;;;;;;;;;;5073770;28;20226;-66
2021/11/10 07:15:43;;;;;;;12.13;8.80;;;;;;;;;;5073643;28;20645;-66
2021/11/10 07:18:11;;;;;;;17.73;8.07;;;;;;;;;;5073538;28;20282;-65
2021/11/10 07:20:43;;;;;;;12.98;7.38;;;;;;;;;;5072061;28;20192;-66
2021/11/10 07:23:14;;;;;;;8.93;6.95;;;;;;;;;;5072362;28;20253;-66
2021/11/10 07:25:47;;;;;;;16.73;7.82;;;;;;;;;;5073549;28;20225;-66
2021/11/10 07:28:14;;;;;;;8.85;6.80;;;;;;;;;;5075103;28;20204;-66
2021/11/10 07:30:46;;;;;;;12.52;6.50;;;;;;;;;;5072646;28;20581;-66
2021/11/10 07:33:14;;;;;;;14.82;8.32;;;;;;;;;;5073685;28;20746;-66
2021/11/10 07:35:41;;;;;;;15.15;7.47;;;;;;;;;;5073363;28;20548;-66
2021/11/10 07:38:09;;;;;;;7.15;5.70;;;;;;;;;;5072700;28;20594;-66
2021/11/10 07:40:38;;;;;;;13.10;6.70;;;;;;;;;;5073256;28;20197;-66
2021/11/10 07:43:06;;;;;;;11.95;8.25;;;;;;;;;;5072716;28;20218;-66
2021/11/10 07:45:35;;;;;;;8.80;7.03;;;;;;;;;;5071795;28;20600;-66
2021/11/10 07:48:04;;;;;;;12.20;8.35;;;;;;;;;;5072479;28;20281;-66
2021/11/10 07:50:32;;;;;;;11.23;8.30;;;;;;;;;;5072211;28;20298;-66
2021/11/10 07:53:00;;;;;;;12.25;9.23;;;;;;;;;;5071620;28;21686;-66
2021/11/10 07:55:33;;;;;;;19.33;10.60;;;;;;;;;;5072413;28;20201;-66
2021/11/10 07:58:04;;;;;;;17.35;11.88;;;;;;;;;;5072902;28;20232;-66
2021/11/10 08:00:38;;;;;;;20.23;13.70;;;;;;;;;;5072866;28;20222;-67
2021/11/10 08:03:06;;;;;;;14.07;11.15;;;;;;;;;;5072441;28;20275;-66
2021/11/10 08:05:37;;;;;;;24.35;15.63;;;;;;;;;;5072826;28;20268;-66
2021/11/10 08:08:10;;;;;;;18.60;13.23;;;;;;;;;;5072594;28;20198;-66
2021/11/10 08:11:08;;;;;;;18.10;12.23;;;;;;;;;;5075038;28;20657;-66
2021/11/10 08:13:43;;;;;;;16.90;11.15;;;;;;;;;;5070552;28;20186;-66
2021/11/10 08:16:11;;;;;;;13.63;10.93;;;;;;;;;;5071988;28;20284;-66
2021/11/10 08:18:43;;;;;;;12.23;9.63;;;;;;;;;;5072250;28;20215;-65
2021/11/10 08:21:11;;;;;;;14.55;10.38;;;;;;;;;;5071328;28;20201;-65
2021/11/10 08:23:47;;;;;;;13.38;10.68;;;;;;;;;;5071111;28;20214;-66
2021/11/10 08:26:15;;;;;;;14.32;10.80;;;;;;;;;;5071371;28;21068;-66
2021/11/10 08:28:48;;;;;;;11.48;9.93;;;;;;;;;;5072407;28;20182;-66
2021/11/10 08:31:20;;;;;;;19.52;12.20;;;;;;;;;;5072401;28;20277;-67
2021/11/10 08:33:50;;;;;;;16.00;12.52;;;;;;;;;;5072109;28;20230;-66
2021/11/10 08:36:29;;;;;;;13.57;11.18;;;;;;;;;;5071639;28;20190;-67
2021/11/10 08:39:01;;;;;;;14.60;11.18;;;;;;;;;;5069753;28;20193;-65
2021/11/10 08:41:37;;;;;;;16.95;10.20;;;;;;;;;;5072859;28;20194;-66
2021/11/10 08:44:12;;;;;;;11.13;8.90;;;;;;;;;;5068552;28;20210;-66
2021/11/10 08:46:40;;;;;;;13.93;9.48;;;;;;;;;;5071885;28;20186;-66
2021/11/10 08:49:07;;;;;;;12.60;10.07;;;;;;;;;;5068142;28;20186;-66
2021/11/10 08:51:35;;;;;;;14.18;9.63;;;;;;;;;;5071900;28;20259;-66
2021/11/10 08:54:03;;;;;;;12.43;9.10;;;;;;;;;;5071166;28;20201;-66
2021/11/10 08:56:35;;;;;;;11.65;9.27;;;;;;;;;;5070542;28;20189;-66
2021/11/10 08:59:02;;;;;;;11.55;9.57;;;;;;;;;;5070930;28;20276;-65
2021/11/10 09:01:38;;;;;;;13.05;9.65;;;;;;;;;;5071528;28;20186;-65
2021/11/10 09:04:06;;;;;;;13.93;9.30;;;;;;;;;;5071495;28;20267;-66
2021/11/10 09:06:35;;;;;;;13.00;8.50;;;;;;;;;;5070376;28;20652;-66
2021/11/10 09:09:03;;;;;;;11.07;7.70;;;;;;;;;;5071610;28;20194;-66
2021/11/10 09:11:40;;;;;;;7.57;6.22;;;;;;;;;;5070959;28;20190;-66
2021/11/10 09:14:10;;;;;;;11.65;6.20;;;;;;;;;;5071499;28;20194;-66
2021/11/10 09:16:47;;;;;;;8.30;6.15;;;;;;;;;;5071269;28;20194;-66
2021/11/10 09:19:30;;;;;;;7.63;4.40;;;;;;;;;;5067386;28;20598;-66
2021/11/10 09:22:00;;;;;;;8.35;5.50;;;;;;;;;;5070158;28;20198;-66
2021/11/10 09:24:29;;;;;;;8.43;4.80;;;;;;;;;;5070203;28;20238;-66
2021/11/10 09:26:57;;;;;;;6.60;4.70;;;;;;;;;;5070173;28;20198;-66
2021/11/10 09:29:27;;;;;;;11.57;6.45;;;;;;;;;;5070077;28;20228;-66
2021/11/10 09:32:09;;;;;;;9.98;5.60;;;;;;;;;;5069291;28;20197;-67
2021/11/10 09:34:47;;;;;;;9.63;5.97;;;;;;;;;;5069183;28;20203;-66
2021/11/10 09:37:20;;;;;;;7.90;6.03;;;;;;;;;;5069127;28;20604;-66
2021/11/10 09:39:51;;;;;;;11.40;6.10;;;;;;;;;;5069720;28;20198;-66
2021/11/10 09:42:19;;;;;;;7.65;5.57;;;;;;;;;;5069716;28;20194;-66
2021/11/10 09:45:10;;;;;;;12.50;7.50;;;;;;;;;;5069450;28;20209;-66
2021/11/10 09:47:41;;;;;;;10.05;6.75;;;;;;;;;;5067989;28;20243;-66
2021/11/10 09:50:28;;;;;;;6.70;5.07;;;;;;;;;;5069480;28;20323;-66
2021/11/10 09:53:01;;;;;;;6.97;4.78;;;;;;;;;;5067808;28;20186;-66
2021/11/10 09:55:33;;;;;;;6.30;5.07;;;;;;;;;;5068033;28;20212;-66
2021/11/10 09:58:03;;;;;;;5.50;3.85;;;;;;;;;;5067708;28;20220;-66
2021/11/10 10:00:33;;;;;;;5.90;4.65;;;;;;;;;;5068944;28;20198;-67
2021/11/10 10:03:03;;;;;;;7.22;4.40;;;;;;;;;;5068334;28;20198;-66
2021/11/10 10:05:35;;;;;;;6.18;4.78;;;;;;;;;;5068339;28;20205;-66
2021/11/10 10:08:21;;;;;;;5.45;4.55;;;;;;;;;;5069158;28;20194;-66
2021/11/10 10:10:54;;;;;;;7.32;6.32;;;;;;;;;;5068644;28;20232;-68
2021/11/10 10:13:26;;;;;;;7.55;5.30;;;;;;;;;;5069885;28;20587;-65
2021/11/10 10:16:03;;;;;;;9.05;4.85;;;;;;;;;;5068866;28;20579;-67
2021/11/10 10:18:36;;;;;;;6.43;5.20;;;;;;;;;;5067406;28;20196;-67
2021/11/10 10:21:12;;;;;;;7.18;4.88;;;;;;;;;;5069034;28;20559;-67
2021/11/10 10:23:42;;;;;;;5.93;4.65;;;;;;;;;;5069107;28;20311;-66
2021/11/10 10:26:11;;;;;;;10.93;5.57;;;;;;;;;;5069075;28;20224;-68
2021/11/10 10:28:45;;;;;;;7.28;5.43;;;;;;;;;;5069443;28;20201;-66
2021/11/10 10:31:16;;;;;;;6.82;5.20;;;;;;;;;;5068240;28;20288;-66
2021/11/10 10:33:49;;;;;;;9.15;5.22;;;;;;;;;;5069569;28;20194;-66
2021/11/10 10:36:26;;;;;;;6.25;4.68;;;;;;;;;;5068479;28;20672;-66
2021/11/10 10:38:55;;;;;;;9.88;5.57;;;;;;;;;;5069214;28;20186;-66
2021/11/10 10:41:25;;;;;;;7.32;5.40;;;;;;;;;;5068159;28;20285;-66
2021/11/10 10:43:53;;;;;;;8.88;5.85;;;;;;;;;;5068955;28;20284;-66
2021/11/10 10:46:21;;;;;;;7.82;4.60;;;;;;;;;;5070494;28;20252;-66
2021/11/10 10:48:50;;;;;;;6.35;4.80;;;;;;;;;;5073189;28;20629;-66
2021/11/10 10:51:18;;;;;;;8.70;6.72;;;;;;;;;;5072108;28;20229;-66
2021/11/10 10:53:46;;;;;;;7.45;6.25;;;;;;;;;;5073365;28;20623;-66
2021/11/10 10:56:24;;;;;;;8.02;5.38;;;;;;;;;;5073011;28;20248;-66
2021/11/10 10:58:56;;;;;;;14.68;5.45;;;;;;;;;;5073374;28;20197;-66
2021/11/10 11:01:31;;;;;;;8.18;5.18;;;;;;;;;;5072432;28;20193;-66
2021/11/10 11:04:05;;;;;;;7.63;5.70;;;;;;;;;;5069694;28;20264;-66
2021/11/10 11:06:35;;;;;;;9.20;6.10;;;;;;;;;;5070966;28;20195;-67
2021/11/10 11:09:10;;;;;;;11.05;6.13;;;;;;;;;;5071968;28;20190;-66
2021/11/10 11:11:40;;;;;;;7.35;5.18;;;;;;;;;;5072622;28;20214;-65
2021/11/10 11:14:15;;;;;;;8.98;6.40;;;;;;;;;;5071411;28;20571;-69
2021/11/10 11:16:53;;;;;;;6.57;4.93;;;;;;;;;;5070928;28;20194;-65
2021/11/10 11:19:22;;;;;;;8.90;6.20;;;;;;;;;;5072183;28;20285;-65
2021/11/10 11:21:53;;;;;;;8.23;5.32;;;;;;;;;;5071875;28;20205;-65
2021/11/10 11:24:30;;;;;;;8.30;5.95;;;;;;;;;;5072206;28;21470;-66
2021/11/10 11:27:09;;;;;;;8.38;6.43;;;;;;;;;;5072442;28;20202;-65
2021/11/10 11:29:36;;;;;;;9.10;6.85;;;;;;;;;;5070269;28;20190;-66
2021/11/10 11:32:17;;;;;;;9.15;5.47;;;;;;;;;;5071786;28;20195;-66
2021/11/10 11:34:56;;;;;;;8.15;5.38;;;;;;;;;;5072586;28;20278;-65
2021/11/10 11:37:25;;;;;;;7.80;6.60;;;;;;;;;;5071735;28;20226;-65
2021/11/10 11:39:53;;;;;;;8.68;6.05;;;;;;;;;;5071718;28;20194;-65
2021/11/10 11:42:26;;;;;;;11.63;7.85;;;;;;;;;;5072473;28;20664;-67
2021/11/10 11:44:54;;;;;;;11.25;7.60;;;;;;;;;;5071553;28;20220;-65
2021/11/10 11:47:24;;;;;;;7.47;5.70;;;;;;;;;;5070917;28;20280;-66
2021/11/10 11:49:54;;;;;;;14.52;6.35;;;;;;;;;;5071509;28;20230;-66
2021/11/10 11:52:28;;;;;;;13.48;7.65;;;;;;;;;;5071543;28;20227;-66
2021/11/10 11:55:01;;;;;;;16.30;9.25;;;;;;;;;;5071676;28;20277;-66
2021/11/10 11:57:31;;;;;;;14.02;8.82;;;;;;;;;;5070509;28;20244;-66
2021/11/10 12:00:00;;;;;;;13.05;7.78;;;;;;;;;;5071603;28;20225;-67
2021/11/10 12:02:31;;;;;;;13.27;7.22;;;;;;;;;;5071826;28;20233;-65
2021/11/10 12:04:59;;;;;;;13.00;6.95;;;;;;;;;;5071884;28;20229;-66
2021/11/10 12:07:49;;;;;;;9.27;7.30;;;;;;;;;;5071997;28;20267;-66
2021/11/10 12:10:30;;;;;;;10.93;6.45;;;;;;;;;;5072076;28;20194;-66
2021/11/10 12:13:08;;;;;;;10.90;7.55;;;;;;;;;;5070549;28;20307;-68
2021/11/10 12:15:51;;;;;;;8.98;6.00;;;;;;;;;;5070348;28;21365;-67
2021/11/10 12:18:21;;;;;;;11.25;7.15;;;;;;;;;;5071569;28;20225;-66
2021/11/10 12:20:57;;;;;;;10.40;6.80;;;;;;;;;;5069990;28;20228;-66
2021/11/10 12:23:52;;;;;;;10.10;6.13;;;;;;;;;;5071170;28;20202;-66
2021/11/10 12:26:27;;;;;;;13.10;8.43;;;;;;;;;;5071508;28;20649;-66
2021/11/10 12:28:56;;;;;;;16.35;10.40;;;;;;;;;;5070820;28;20193;-66
2021/11/10 12:31:30;;;;;;;18.27;9.75;;;;;;;;;;5070789;28;20267;-67
2021/11/10 12:33:58;;;;;;;15.68;8.85;;;;;;;;;;5068044;28;20284;-66
2021/11/10 12:36:41;;;;;;;11.18;6.95;;;;;;;;;;5071423;28;20247;-66
2021/11/10 12:39:13;;;;;;;15.23;8.10;;;;;;;;;;5069683;28;20244;-66
2021/11/10 12:41:48;;;;;;;10.77;7.40;;;;;;;;;;5070890;28;20217;-66
2021/11/10 12:44:25;;;;;;;10.90;7.68;;;;;;;;;;5067180;28;20300;-66
2021/11/10 12:46:54;;;;;;;10.30;5.85;;;;;;;;;;5070695;28;20720;-66
2021/11/10 12:49:25;;;;;;;14.07;7.00;;;;;;;;;;5070909;28;20273;-66
2021/11/10 12:52:12;;;;;;;11.00;7.50;;;;;;;;;;5070571;28;20280;-66
2021/11/10 12:54:42;;;;;;;12.68;7.32;;;;;;;;;;5068572;28;20194;-66
2021/11/10 12:57:11;;;;;;;14.10;7.53;;;;;;;;;;5070543;28;20198;-66
2021/11/10 12:59:45;;;;;;;19.85;7.55;;;;;;;;;;5069245;28;20201;-66
2021/11/10 13:02:13;;;;;;;10.98;7.50;;;;;;;;;;5067993;28;20204;-65
2021/11/10 13:04:44;;;;;;;13.80;6.72;;;;;;;;;;5071026;28;20283;-65
2021/11/10 13:07:17;;;;;;;13.88;8.43;;;;;;;;;;5069389;28;20186;-66
2021/11/10 13:09:45;;;;;;;13.45;8.75;;;;;;;;;;5070283;28;20196;-66
2021/11/10 13:12:15;;;;;;;14.57;8.93;;;;;;;;;;5070240;28;20563;-66
2021/11/10 13:14:45;;;;;;;12.20;9.63;;;;;;;;;;5070370;28;20198;-66
2021/11/10 13:17:14;;;;;;;11.75;8.90;;;;;;;;;;5070234;28;20586;-66
2021/11/10 13:19:45;;;;;;;13.77;8.32;;;;;;;;;;5070355;28;20224;-66
2021/11/10 13:22:15;;;;;;;11.02;6.03;;;;;;;;;;5067690;28;20216;-66
2021/11/10 13:24:43;;;;;;;13.98;8.57;;;;;;;;;;5069545;28;20598;-66
2021/11/10 13:27:11;;;;;;;10.35;8.13;;;;;;;;;;5068799;28;20703;-66
2021/11/10 13:29:48;;;;;;;10.23;7.10;;;;;;;;;;5065342;28;20190;-67
2021/11/10 13:32:18;;;;;;;10.85;7.63;;;;;;;;;;5067888;28;20194;-66
2021/11/10 13:34:48;;;;;;;13.38;9.00;;;;;;;;;;5069384;28;20558;-66
2021/11/10 13:37:20;;;;;;;11.57;7.10;;;;;;;;;;5067293;28;20225;-66
2021/11/10 13:39:54;;;;;;;10.05;7.70;;;;;;;;;;5069774;28;20198;-66
2021/11/10 13:42:25;;;;;;;13.50;7.47;;;;;;;;;;5068805;28;20745;-66
2021/11/10 13:45:13;;;;;;;9.20;8.20;;;;;;;;;;5069476;28;20234;-66
2021/11/10 13:47:40;;;;;;;9.50;6.65;;;;;;;;;;5067943;28;20682;-67
2021/11/10 13:50:17;;;;;;;10.52;7.13;;;;;;;;;;5069648;28;20306;-66
2021/11/10 13:52:44;;;;;;;9.32;6.68;;;;;;;;;;5067582;28;20186;-66
2021/11/10 13:55:13;;;;;;;10.30;6.75;;;;;;;;;;5066269;28;21597;-67
2021/11/10 13:57:49;;;;;;;12.07;7.72;;;;;;;;;;5069200;28;20636;-66
2021/11/10 14:00:19;;;;;;;8.23;6.40;;;;;;;;;;5067803;28;20201;-66
2021/11/10 14:02:47;;;;;;;11.23;7.15;;;;;;;;;;5069234;28;20201;-65
2021/11/10 14:05:15;;;;;;;10.32;7.75;;;;;;;;;;5068592;28;20253;-67
2021/11/10 14:07:43;;;;;;;14.95;7.60;;;;;;;;;;5064711;28;20648;-65
2021/11/10 14:10:11;;;;;;;9.95;8.32;;;;;;;;;;5068982;28;20201;-65
2021/11/10 14:12:40;;;;;;;8.38;6.57;;;;;;;;;;5069204;28;20205;-66
2021/11/10 14:15:15;;;;;;;10.85;8.45;;;;;;;;;;5068258;28;20191;-67
2021/11/10 14:17:45;;;;;;;9.68;7.10;;;;;;;;;;5066358;28;20201;-66
2021/11/10 14:20:18;;;;;;;11.68;8.10;;;;;;;;;;5068732;28;20189;-67
2021/11/10 14:22:47;;;;;;;9.50;7.05;;;;;;;;;;5071561;28;20194;-66
2021/11/10 14:25:20;;;;;;;15.35;7.95;;;;;;;;;;5072959;28;20589;-67
2021/11/10 14:27:47;;;;;;;12.73;7.10;;;;;;;;;;5072444;28;20185;-66
2021/11/10 14:30:16;;;;;;;8.02;5.88;;;;;;;;;;5072900;28;20255;-66
2021/11/10 14:33:02;;;;;;;10.23;6.78;;;;;;;;;;5072107;28;20186;-66
2021/11/10 14:35:40;;;;;;;10.52;7.43;;;;;;;;;;5072534;28;20229;-70
2021/11/10 14:38:12;;;;;;;11.20;6.93;;;;;;;;;;5071949;28;20285;-67
2021/11/10 14:40:42;;;;;;;8.95;8.05;;;;;;;;;;5070831;28;20288;-66
2021/11/10 14:43:20;;;;;;;15.27;7.30;;;;;;;;;;5070233;28;20213;-67
2021/11/10 14:46:04;;;;;;;10.85;7.65;;;;;;;;;;5072420;28;20221;-66
2021/11/10 14:48:32;;;;;;;10.50;7.97;;;;;;;;;;5071652;28;20588;-67
2021/11/10 14:51:06;;;;;;;9.27;8.32;;;;;;;;;;5071753;28;20305;-66